sensor_id;sensor_type;location;lat;lon;timestamp;temperature;humidity
4354;DHT22;11018;51.258;6.806;2023-03-01T00:00:14;0.80;41.80
4354;DHT22;11018;51.258;6.806;2023-03-01T00:02:40;0.80;42.20
4354;DHT22;11018;51.258;6.806;2023-03-01T00:05:06;0.70;42.40
4354;DHT22;11018;51.258;6.806;2023-03-01T00:07:32;0.70;43.00
4354;DHT22;11018;51.258;6.806;2023-03-01T00:09:58;0.60;43.30
4354;DHT22;11018;51.258;6.806;2023-03-01T00:12:23;0.60;43.80
4354;DHT22;11018;51.258;6.806;2023-03-01T00:14:49;0.60;43.60
4354;DHT22;11018;51.258;6.806;2023-03-01T00:17:15;0.60;43.30
4354;DHT22;11018;51.258;6.806;2023-03-01T00:19:40;0.60;43.40
4354;DHT22;11018;51.258;6.806;2023-03-01T00:22:06;0.60;43.60
4354;DHT22;11018;51.258;6.806;2023-03-01T00:24:31;0.60;43.90
4354;DHT22;11018;51.258;6.806;2023-03-01T00:26:57;0.60;44.00
4354;DHT22;11018;51.258;6.806;2023-03-01T00:29:24;0.60;44.10
4354;DHT22;11018;51.258;6.806;2023-03-01T00:31:49;0.60;44.20
4354;DHT22;11018;51.258;6.806;2023-03-01T00:34:15;0.50;44.90
4354;DHT22;11018;51.258;6.806;2023-03-01T00:36:41;0.50;45.10
4354;DHT22;11018;51.258;6.806;2023-03-01T00:39:11;0.50;45.20
4354;DHT22;11018;51.258;6.806;2023-03-01T00:41:37;0.40;45.60
4354;DHT22;11018;51.258;6.806;2023-03-01T00:44:02;0.40;46.60
4354;DHT22;11018;51.258;6.806;2023-03-01T00:46:28;0.40;46.10
4354;DHT22;11018;51.258;6.806;2023-03-01T00:48:55;0.40;46.10
4354;DHT22;11018;51.258;6.806;2023-03-01T00:51:26;0.40;46.10
4354;DHT22;11018;51.258;6.806;2023-03-01T00:53:54;0.40;46.30
4354;DHT22;11018;51.258;6.806;2023-03-01T00:56:20;0.30;46.40
4354;DHT22;11018;51.258;6.806;2023-03-01T00:58:46;0.30;46.50
4354;DHT22;11018;51.258;6.806;2023-03-01T01:03:47;0.20;46.70
4354;DHT22;11018;51.258;6.806;2023-03-01T01:06:18;0.30;47.10
4354;DHT22;11018;51.258;6.806;2023-03-01T01:08:44;0.20;47.30
4354;DHT22;11018;51.258;6.806;2023-03-01T01:11:10;0.20;47.70
4354;DHT22;11018;51.258;6.806;2023-03-01T01:13:37;0.20;47.50
4354;DHT22;11018;51.258;6.806;2023-03-01T01:16:03;0.20;47.50
4354;DHT22;11018;51.258;6.806;2023-03-01T01:18:28;0.30;47.40
4354;DHT22;11018;51.258;6.806;2023-03-01T01:20:54;0.30;47.40
4354;DHT22;11018;51.258;6.806;2023-03-01T01:23:19;0.20;47.40
4354;DHT22;11018;51.258;6.806;2023-03-01T01:25:45;0.20;48.10
4354;DHT22;11018;51.258;6.806;2023-03-01T01:28:10;0.20;47.90
4354;DHT22;11018;51.258;6.806;2023-03-01T01:30:36;0.20;47.80
4354;DHT22;11018;51.258;6.806;2023-03-01T01:33:01;0.20;48.10
4354;DHT22;11018;51.258;6.806;2023-03-01T01:35:27;0.20;47.80
4354;DHT22;11018;51.258;6.806;2023-03-01T01:37:53;0.20;47.50
4354;DHT22;11018;51.258;6.806;2023-03-01T01:40:18;0.30;47.00
4354;DHT22;11018;51.258;6.806;2023-03-01T01:42:44;0.30;46.90
4354;DHT22;11018;51.258;6.806;2023-03-01T01:45:36;-0.30;46.80
4354;DHT22;11018;51.258;6.806;2023-03-01T01:48:13;0.20;47.70
4354;DHT22;11018;51.258;6.806;2023-03-01T01:50:40;0.20;47.30
4354;DHT22;11018;51.258;6.806;2023-03-01T01:53:10;0.20;47.30
4354;DHT22;11018;51.258;6.806;2023-03-01T01:55:40;0.10;48.00
4354;DHT22;11018;51.258;6.806;2023-03-01T01:58:09;0.00;49.00
4354;DHT22;11018;51.258;6.806;2023-03-01T02:00:37;0.00;49.60
4354;DHT22;11018;51.258;6.806;2023-03-01T02:03:14;0.00;48.90
4354;DHT22;11018;51.258;6.806;2023-03-01T02:08:13;0.10;49.10
4354;DHT22;11018;51.258;6.806;2023-03-01T02:10:39;0.10;48.80
4354;DHT22;11018;51.258;6.806;2023-03-01T02:13:06;0.10;48.10
4354;DHT22;11018;51.258;6.806;2023-03-01T02:15:34;0.20;47.50
4354;DHT22;11018;51.258;6.806;2023-03-01T02:18:01;0.10;47.70
4354;DHT22;11018;51.258;6.806;2023-03-01T02:23:02;0.00;48.70
4354;DHT22;11018;51.258;6.806;2023-03-01T02:25:58;-0.10;49.30
4354;DHT22;11018;51.258;6.806;2023-03-01T02:28:32;-0.10;50.00
4354;DHT22;11018;51.258;6.806;2023-03-01T02:30:58;-0.20;50.40
4354;DHT22;11018;51.258;6.806;2023-03-01T02:33:43;-0.20;50.90
4354;DHT22;11018;51.258;6.806;2023-03-01T02:36:14;-0.30;51.60
4354;DHT22;11018;51.258;6.806;2023-03-01T02:38:41;-0.20;51.80
4354;DHT22;11018;51.258;6.806;2023-03-01T02:41:08;-0.30;52.10
4354;DHT22;11018;51.258;6.806;2023-03-01T02:43:34;-0.30;51.80
4354;DHT22;11018;51.258;6.806;2023-03-01T02:46:13;-0.40;52.50
4354;DHT22;11018;51.258;6.806;2023-03-01T02:48:44;-0.50;53.20
4354;DHT22;11018;51.258;6.806;2023-03-01T02:54:25;-0.50;55.30
4354;DHT22;11018;51.258;6.806;2023-03-01T02:56:52;-0.40;53.60
4354;DHT22;11018;51.258;6.806;2023-03-01T02:59:20;-0.30;51.90
4354;DHT22;11018;51.258;6.806;2023-03-01T03:01:46;-0.30;51.40
4354;DHT22;11018;51.258;6.806;2023-03-01T03:04:15;-0.30;51.20
4354;DHT22;11018;51.258;6.806;2023-03-01T03:06:44;-0.30;51.20
4354;DHT22;11018;51.258;6.806;2023-03-01T03:09:11;-0.40;51.20
4354;DHT22;11018;51.258;6.806;2023-03-01T03:11:37;-0.40;51.60
4354;DHT22;11018;51.258;6.806;2023-03-01T03:14:04;-0.40;51.80
4354;DHT22;11018;51.258;6.806;2023-03-01T03:16:30;-0.40;52.00
4354;DHT22;11018;51.258;6.806;2023-03-01T03:18:56;-0.50;52.40
4354;DHT22;11018;51.258;6.806;2023-03-01T03:21:31;-0.60;53.50
4354;DHT22;11018;51.258;6.806;2023-03-01T03:23:57;-0.60;54.20
4354;DHT22;11018;51.258;6.806;2023-03-01T03:26:23;-0.60;54.10
4354;DHT22;11018;51.258;6.806;2023-03-01T03:28:49;-0.50;52.70
4354;DHT22;11018;51.258;6.806;2023-03-01T03:31:14;-0.40;51.90
4354;DHT22;11018;51.258;6.806;2023-03-01T03:33:40;-0.40;51.30
4354;DHT22;11018;51.258;6.806;2023-03-01T03:36:06;-0.40;51.40
4354;DHT22;11018;51.258;6.806;2023-03-01T03:38:31;-0.40;51.40
4354;DHT22;11018;51.258;6.806;2023-03-01T03:41:05;-0.40;51.60
4354;DHT22;11018;51.258;6.806;2023-03-01T03:43:34;-0.50;51.70
4354;DHT22;11018;51.258;6.806;2023-03-01T03:46:00;-0.50;52.70
4354;DHT22;11018;51.258;6.806;2023-03-01T03:48:33;-0.40;52.20
4354;DHT22;11018;51.258;6.806;2023-03-01T03:50:59;-0.40;51.00
4354;DHT22;11018;51.258;6.806;2023-03-01T03:53:27;-0.40;50.80
4354;DHT22;11018;51.258;6.806;2023-03-01T03:55:53;-0.40;51.00
4354;DHT22;11018;51.258;6.806;2023-03-01T03:58:22;-0.40;51.00
4354;DHT22;11018;51.258;6.806;2023-03-01T04:00:53;-0.40;50.90
4354;DHT22;11018;51.258;6.806;2023-03-01T04:03:21;-0.40;51.00
4354;DHT22;11018;51.258;6.806;2023-03-01T04:05:47;-0.40;51.20
4354;DHT22;11018;51.258;6.806;2023-03-01T04:08:15;-0.40;51.00
4354;DHT22;11018;51.258;6.806;2023-03-01T04:10:42;-0.40;50.50
4354;DHT22;11018;51.258;6.806;2023-03-01T04:13:11;-0.50;50.70
4354;DHT22;11018;51.258;6.806;2023-03-01T04:15:37;-0.40;50.30
4354;DHT22;11018;51.258;6.806;2023-03-01T04:18:04;-0.40;50.20
4354;DHT22;11018;51.258;6.806;2023-03-01T04:20:33;-0.50;50.30
4354;DHT22;11018;51.258;6.806;2023-03-01T04:23:04;-0.50;50.30
4354;DHT22;11018;51.258;6.806;2023-03-01T04:25:40;-0.50;50.40
4354;DHT22;11018;51.258;6.806;2023-03-01T04:28:07;-0.50;50.60
4354;DHT22;11018;51.258;6.806;2023-03-01T04:30:32;-0.50;50.60
4354;DHT22;11018;51.258;6.806;2023-03-01T04:33:05;-0.50;50.90
4354;DHT22;11018;51.258;6.806;2023-03-01T04:35:32;-0.60;51.10
4354;DHT22;11018;51.258;6.806;2023-03-01T04:37:58;-0.60;51.20
4354;DHT22;11018;51.258;6.806;2023-03-01T04:40:24;-0.50;51.40
4354;DHT22;11018;51.258;6.806;2023-03-01T04:42:50;-0.50;51.40
4354;DHT22;11018;51.258;6.806;2023-03-01T04:45:16;-0.60;51.10
4354;DHT22;11018;51.258;6.806;2023-03-01T04:47:43;-0.60;51.40
4354;DHT22;11018;51.258;6.806;2023-03-01T04:50:11;-0.60;51.10
4354;DHT22;11018;51.258;6.806;2023-03-01T04:52:37;-0.60;50.20
4354;DHT22;11018;51.258;6.806;2023-03-01T04:55:03;-0.60;50.40
4354;DHT22;11018;51.258;6.806;2023-03-01T04:57:29;-0.60;50.60
4354;DHT22;11018;51.258;6.806;2023-03-01T04:59:55;-0.60;50.60
4354;DHT22;11018;51.258;6.806;2023-03-01T05:02:20;-0.60;50.70
4354;DHT22;11018;51.258;6.806;2023-03-01T05:04:46;-0.60;50.60
4354;DHT22;11018;51.258;6.806;2023-03-01T05:07:11;-0.60;51.00
4354;DHT22;11018;51.258;6.806;2023-03-01T05:09:38;-0.60;51.50
4354;DHT22;11018;51.258;6.806;2023-03-01T05:12:04;-0.70;51.70
4354;DHT22;11018;51.258;6.806;2023-03-01T05:14:30;-0.60;51.20
4354;DHT22;11018;51.258;6.806;2023-03-01T05:16:55;-0.70;51.40
4354;DHT22;11018;51.258;6.806;2023-03-01T05:19:29;-0.70;51.80
4354;DHT22;11018;51.258;6.806;2023-03-01T05:21:56;-0.70;52.20
4354;DHT22;11018;51.258;6.806;2023-03-01T05:24:33;-0.70;52.40
4354;DHT22;11018;51.258;6.806;2023-03-01T05:27:00;-0.80;53.20
4354;DHT22;11018;51.258;6.806;2023-03-01T05:29:27;-0.70;53.10
4354;DHT22;11018;51.258;6.806;2023-03-01T05:31:58;-0.70;53.00
4354;DHT22;11018;51.258;6.806;2023-03-01T05:34:26;-0.80;53.40
4354;DHT22;11018;51.258;6.806;2023-03-01T05:36:52;-0.70;53.60
4354;DHT22;11018;51.258;6.806;2023-03-01T05:39:22;-0.70;53.20
4354;DHT22;11018;51.258;6.806;2023-03-01T05:41:52;-0.70;52.40
4354;DHT22;11018;51.258;6.806;2023-03-01T05:44:18;-0.70;52.00
4354;DHT22;11018;51.258;6.806;2023-03-01T05:46:43;-0.70;52.20
4354;DHT22;11018;51.258;6.806;2023-03-01T05:49:10;-0.70;52.00
4354;DHT22;11018;51.258;6.806;2023-03-01T05:51:36;-0.70;51.90
4354;DHT22;11018;51.258;6.806;2023-03-01T05:54:01;-0.70;51.90
4354;DHT22;11018;51.258;6.806;2023-03-01T05:56:27;-0.80;51.70
4354;DHT22;11018;51.258;6.806;2023-03-01T05:58:52;-0.80;51.80
4354;DHT22;11018;51.258;6.806;2023-03-01T06:01:18;-0.80;52.10
4354;DHT22;11018;51.258;6.806;2023-03-01T06:03:43;-0.70;52.10
4354;DHT22;11018;51.258;6.806;2023-03-01T06:06:09;-0.70;52.50
4354;DHT22;11018;51.258;6.806;2023-03-01T06:08:35;-0.80;52.20
4354;DHT22;11018;51.258;6.806;2023-03-01T06:11:00;-0.70;51.90
4354;DHT22;11018;51.258;6.806;2023-03-01T06:13:26;-0.70;51.20
4354;DHT22;11018;51.258;6.806;2023-03-01T06:15:51;-0.70;51.30
4354;DHT22;11018;51.258;6.806;2023-03-01T06:18:17;-0.70;52.00
4354;DHT22;11018;51.258;6.806;2023-03-01T06:20:42;-0.70;52.40
4354;DHT22;11018;51.258;6.806;2023-03-01T06:23:08;-0.70;51.30
4354;DHT22;11018;51.258;6.806;2023-03-01T06:25:33;-0.70;50.70
4354;DHT22;11018;51.258;6.806;2023-03-01T06:27:59;-0.70;51.30
4354;DHT22;11018;51.258;6.806;2023-03-01T06:30:25;-0.70;51.20
4354;DHT22;11018;51.258;6.806;2023-03-01T06:32:52;-0.60;50.80
4354;DHT22;11018;51.258;6.806;2023-03-01T06:35:18;-0.60;50.80
4354;DHT22;11018;51.258;6.806;2023-03-01T06:37:47;-0.60;50.30
4354;DHT22;11018;51.258;6.806;2023-03-01T06:40:14;-0.50;50.20
4354;DHT22;11018;51.258;6.806;2023-03-01T06:42:42;-0.50;50.00
4354;DHT22;11018;51.258;6.806;2023-03-01T06:45:09;-0.50;49.80
4354;DHT22;11018;51.258;6.806;2023-03-01T06:47:35;-0.40;48.70
4354;DHT22;11018;51.258;6.806;2023-03-01T06:50:02;-0.40;49.30
4354;DHT22;11018;51.258;6.806;2023-03-01T06:52:27;-0.40;49.20
4354;DHT22;11018;51.258;6.806;2023-03-01T06:54:53;-0.30;48.60
4354;DHT22;11018;51.258;6.806;2023-03-01T06:57:19;-0.30;47.90
4354;DHT22;11018;51.258;6.806;2023-03-01T06:59:44;-0.30;49.10
4354;DHT22;11018;51.258;6.806;2023-03-01T07:02:11;-0.40;49.70
4354;DHT22;11018;51.258;6.806;2023-03-01T07:04:37;-0.40;50.90
4354;DHT22;11018;51.258;6.806;2023-03-01T07:07:03;-0.40;50.50
4354;DHT22;11018;51.258;6.806;2023-03-01T07:09:28;-0.20;49.40
4354;DHT22;11018;51.258;6.806;2023-03-01T07:11:54;-0.10;49.00
4354;DHT22;11018;51.258;6.806;2023-03-01T07:14:21;0.20;45.40
4354;DHT22;11018;51.258;6.806;2023-03-01T07:16:47;0.30;44.50
4354;DHT22;11018;51.258;6.806;2023-03-01T07:19:12;0.20;46.70
4354;DHT22;11018;51.258;6.806;2023-03-01T07:21:38;0.20;44.20
4354;DHT22;11018;51.258;6.806;2023-03-01T07:24:07;0.40;44.10
4354;DHT22;11018;51.258;6.806;2023-03-01T07:26:33;0.50;41.20
4354;DHT22;11018;51.258;6.806;2023-03-01T07:28:59;0.50;42.50
4354;DHT22;11018;51.258;6.806;2023-03-01T07:31:25;0.40;42.30
4354;DHT22;11018;51.258;6.806;2023-03-01T07:33:53;0.40;43.00
4354;DHT22;11018;51.258;6.806;2023-03-01T07:36:19;0.50;42.70
4354;DHT22;11018;51.258;6.806;2023-03-01T07:38:44;0.70;40.80
4354;DHT22;11018;51.258;6.806;2023-03-01T07:41:10;1.00;38.70
4354;DHT22;11018;51.258;6.806;2023-03-01T07:43:35;1.20;36.60
4354;DHT22;11018;51.258;6.806;2023-03-01T07:46:02;1.20;36.50
4354;DHT22;11018;51.258;6.806;2023-03-01T07:48:29;0.70;35.10
4354;DHT22;11018;51.258;6.806;2023-03-01T07:50:57;1.40;35.80
4354;DHT22;11018;51.258;6.806;2023-03-01T07:53:23;1.50;35.80
4354;DHT22;11018;51.258;6.806;2023-03-01T07:55:48;1.50;37.70
4354;DHT22;11018;51.258;6.806;2023-03-01T07:58:14;1.60;36.70
4354;DHT22;11018;51.258;6.806;2023-03-01T08:00:39;1.60;34.60
4354;DHT22;11018;51.258;6.806;2023-03-01T08:03:05;1.70;36.70
4354;DHT22;11018;51.258;6.806;2023-03-01T08:05:30;1.80;34.30
4354;DHT22;11018;51.258;6.806;2023-03-01T08:07:57;1.80;33.70
4354;DHT22;11018;51.258;6.806;2023-03-01T08:10:23;1.90;36.00
4354;DHT22;11018;51.258;6.806;2023-03-01T08:12:51;1.90;35.50
4354;DHT22;11018;51.258;6.806;2023-03-01T08:15:17;2.00;36.80
4354;DHT22;11018;51.258;6.806;2023-03-01T08:17:44;2.20;34.80
4354;DHT22;11018;51.258;6.806;2023-03-01T08:20:10;2.20;33.10
4354;DHT22;11018;51.258;6.806;2023-03-01T08:22:37;2.30;32.30
4354;DHT22;11018;51.258;6.806;2023-03-01T08:25:03;2.40;32.00
4354;DHT22;11018;51.258;6.806;2023-03-01T08:27:29;2.60;31.00
4354;DHT22;11018;51.258;6.806;2023-03-01T08:29:54;2.50;32.10
4354;DHT22;11018;51.258;6.806;2023-03-01T08:32:20;2.50;31.40
4354;DHT22;11018;51.258;6.806;2023-03-01T08:34:48;2.40;32.80
4354;DHT22;11018;51.258;6.806;2023-03-01T08:37:14;2.60;32.80
4354;DHT22;11018;51.258;6.806;2023-03-01T08:39:39;2.80;32.30
4354;DHT22;11018;51.258;6.806;2023-03-01T08:42:05;2.80;31.60
4354;DHT22;11018;51.258;6.806;2023-03-01T08:44:30;2.80;32.20
4354;DHT22;11018;51.258;6.806;2023-03-01T08:46:56;3.00;31.20
4354;DHT22;11018;51.258;6.806;2023-03-01T08:49:22;3.00;31.10
4354;DHT22;11018;51.258;6.806;2023-03-01T08:51:49;3.10;28.80
4354;DHT22;11018;51.258;6.806;2023-03-01T08:54:20;3.30;29.70
4354;DHT22;11018;51.258;6.806;2023-03-01T08:56:46;3.30;29.30
4354;DHT22;11018;51.258;6.806;2023-03-01T08:59:13;3.50;27.80
4354;DHT22;11018;51.258;6.806;2023-03-01T09:01:39;3.50;27.80
4354;DHT22;11018;51.258;6.806;2023-03-01T09:04:05;3.40;29.40
4354;DHT22;11018;51.258;6.806;2023-03-01T09:06:33;3.50;28.90
4354;DHT22;11018;51.258;6.806;2023-03-01T09:08:59;3.60;27.50
4354;DHT22;11018;51.258;6.806;2023-03-01T09:11:25;3.70;27.40
4354;DHT22;11018;51.258;6.806;2023-03-01T09:13:51;3.90;26.80
4354;DHT22;11018;51.258;6.806;2023-03-01T09:16:18;3.90;26.20
4354;DHT22;11018;51.258;6.806;2023-03-01T09:18:44;4.10;26.20
4354;DHT22;11018;51.258;6.806;2023-03-01T09:21:13;4.10;23.40
4354;DHT22;11018;51.258;6.806;2023-03-01T09:23:41;4.20;23.90
4354;DHT22;11018;51.258;6.806;2023-03-01T09:26:09;4.20;24.20
4354;DHT22;11018;51.258;6.806;2023-03-01T09:28:40;4.20;24.20
4354;DHT22;11018;51.258;6.806;2023-03-01T09:31:10;4.20;23.60
4354;DHT22;11018;51.258;6.806;2023-03-01T09:33:38;4.20;23.90
4354;DHT22;11018;51.258;6.806;2023-03-01T09:36:06;4.20;25.40
4354;DHT22;11018;51.258;6.806;2023-03-01T09:38:33;4.40;24.30
4354;DHT22;11018;51.258;6.806;2023-03-01T09:41:00;4.50;23.30
4354;DHT22;11018;51.258;6.806;2023-03-01T09:43:46;4.50;23.80
4354;DHT22;11018;51.258;6.806;2023-03-01T09:46:14;4.60;22.80
4354;DHT22;11018;51.258;6.806;2023-03-01T09:48:50;4.60;23.50
4354;DHT22;11018;51.258;6.806;2023-03-01T09:51:19;4.60;22.70
4354;DHT22;11018;51.258;6.806;2023-03-01T09:53:47;4.60;24.80
4354;DHT22;11018;51.258;6.806;2023-03-01T09:56:20;4.50;22.10
4354;DHT22;11018;51.258;6.806;2023-03-01T09:58:55;4.70;25.10
4354;DHT22;11018;51.258;6.806;2023-03-01T10:01:35;4.90;21.70
4354;DHT22;11018;51.258;6.806;2023-03-01T10:04:33;4.90;20.00
4354;DHT22;11018;51.258;6.806;2023-03-01T10:09:43;4.80;22.40
4354;DHT22;11018;51.258;6.806;2023-03-01T10:12:16;4.80;22.40
4354;DHT22;11018;51.258;6.806;2023-03-01T10:15:00;5.00;21.10
4354;DHT22;11018;51.258;6.806;2023-03-01T10:17:37;5.10;21.40
4354;DHT22;11018;51.258;6.806;2023-03-01T10:20:21;5.10;20.40
4354;DHT22;11018;51.258;6.806;2023-03-01T10:22:48;5.20;19.30
4354;DHT22;11018;51.258;6.806;2023-03-01T10:28:20;5.20;20.00
4354;DHT22;11018;51.258;6.806;2023-03-01T10:30:49;5.20;19.20
4354;DHT22;11018;51.258;6.806;2023-03-01T10:33:23;5.20;19.30
4354;DHT22;11018;51.258;6.806;2023-03-01T10:35:49;5.30;19.90
4354;DHT22;11018;51.258;6.806;2023-03-01T10:38:16;5.30;19.20
4354;DHT22;11018;51.258;6.806;2023-03-01T10:41:05;5.40;18.90
4354;DHT22;11018;51.258;6.806;2023-03-01T10:43:53;5.50;19.20
4354;DHT22;11018;51.258;6.806;2023-03-01T10:46:29;5.50;18.00
4354;DHT22;11018;51.258;6.806;2023-03-01T10:49:19;5.60;18.80
4354;DHT22;11018;51.258;6.806;2023-03-01T10:51:49;5.50;16.90
4354;DHT22;11018;51.258;6.806;2023-03-01T10:54:33;5.50;18.20
4354;DHT22;11018;51.258;6.806;2023-03-01T10:57:01;5.50;19.00
4354;DHT22;11018;51.258;6.806;2023-03-01T10:59:30;5.60;18.60
4354;DHT22;11018;51.258;6.806;2023-03-01T11:04:56;5.50;16.50
4354;DHT22;11018;51.258;6.806;2023-03-01T11:07:22;5.50;18.50
4354;DHT22;11018;51.258;6.806;2023-03-01T11:09:48;5.60;19.40
4354;DHT22;11018;51.258;6.806;2023-03-01T11:12:15;5.60;18.40
4354;DHT22;11018;51.258;6.806;2023-03-01T11:14:49;5.70;18.50
4354;DHT22;11018;51.258;6.806;2023-03-01T11:17:21;5.90;17.90
4354;DHT22;11018;51.258;6.806;2023-03-01T11:20:29;6.00;17.90
4354;DHT22;11018;51.258;6.806;2023-03-01T11:22:53;5.90;18.10
4354;DHT22;11018;51.258;6.806;2023-03-01T11:25:26;6.10;17.20
4354;DHT22;11018;51.258;6.806;2023-03-01T11:27:53;6.00;17.90
4354;DHT22;11018;51.258;6.806;2023-03-01T11:30:32;6.10;17.80
4354;DHT22;11018;51.258;6.806;2023-03-01T11:33:12;6.20;15.70
4354;DHT22;11018;51.258;6.806;2023-03-01T11:35:45;6.10;16.60
4354;DHT22;11018;51.258;6.806;2023-03-01T11:38:26;6.20;15.70
4354;DHT22;11018;51.258;6.806;2023-03-01T11:41:06;6.20;15.20
4354;DHT22;11018;51.258;6.806;2023-03-01T11:43:46;6.10;14.60
4354;DHT22;11018;51.258;6.806;2023-03-01T11:46:29;6.00;15.30
4354;DHT22;11018;51.258;6.806;2023-03-01T11:51:41;6.20;17.40
4354;DHT22;11018;51.258;6.806;2023-03-01T11:54:30;6.50;16.60
4354;DHT22;11018;51.258;6.806;2023-03-01T12:08:41;6.60;14.90
4354;DHT22;11018;51.258;6.806;2023-03-01T12:13:54;7.00;14.90
4354;DHT22;11018;51.258;6.806;2023-03-01T12:21:55;7.10;13.70
4354;DHT22;11018;51.258;6.806;2023-03-01T12:29:22;6.80;14.90
4354;DHT22;11018;51.258;6.806;2023-03-01T12:35:26;6.70;15.20
4354;DHT22;11018;51.258;6.806;2023-03-01T12:40:34;6.90;15.00
4354;DHT22;11018;51.258;6.806;2023-03-01T12:51:38;7.00;14.00
4354;DHT22;11018;51.258;6.806;2023-03-01T12:54:25;6.90;14.20
4354;DHT22;11018;51.258;6.806;2023-03-01T12:56:52;7.00;14.70
4354;DHT22;11018;51.258;6.806;2023-03-01T12:59:35;7.00;15.30
4354;DHT22;11018;51.258;6.806;2023-03-01T13:18:00;7.50;14.10
4354;DHT22;11018;51.258;6.806;2023-03-01T13:20:44;7.70;14.00
4354;DHT22;11018;51.258;6.806;2023-03-01T13:31:54;7.70;13.20
4354;DHT22;11018;51.258;6.806;2023-03-01T13:33:57;7.80;14.30
4354;DHT22;11018;51.258;6.806;2023-03-01T13:39:02;7.70;11.90
4354;DHT22;11018;51.258;6.806;2023-03-01T13:44:32;7.60;12.70
4354;DHT22;11018;51.258;6.806;2023-03-01T13:49:53;7.60;12.80
4354;DHT22;11018;51.258;6.806;2023-03-01T13:54:57;7.80;14.10
4354;DHT22;11018;51.258;6.806;2023-03-01T13:57:26;7.50;14.90
4354;DHT22;11018;51.258;6.806;2023-03-01T13:59:53;7.70;14.70
4354;DHT22;11018;51.258;6.806;2023-03-01T14:02:19;8.00;14.50
4354;DHT22;11018;51.258;6.806;2023-03-01T14:04:56;8.40;14.60
4354;DHT22;11018;51.258;6.806;2023-03-01T14:07:24;8.90;12.50
4354;DHT22;11018;51.258;6.806;2023-03-01T14:09:56;9.20;12.10
4354;DHT22;11018;51.258;6.806;2023-03-01T14:12:39;9.50;11.80
4354;DHT22;11018;51.258;6.806;2023-03-01T14:15:33;9.80;11.10
4354;DHT22;11018;51.258;6.806;2023-03-01T14:18:22;10.00;10.30
4354;DHT22;11018;51.258;6.806;2023-03-01T14:20:52;10.10;10.10
4354;DHT22;11018;51.258;6.806;2023-03-01T14:23:20;10.10;9.70
4354;DHT22;11018;51.258;6.806;2023-03-01T14:25:48;10.40;11.00
4354;DHT22;11018;51.258;6.806;2023-03-01T14:28:27;10.70;10.10
4354;DHT22;11018;51.258;6.806;2023-03-01T14:30:56;10.90;9.30
4354;DHT22;11018;51.258;6.806;2023-03-01T14:33:34;11.20;12.30
4354;DHT22;11018;51.258;6.806;2023-03-01T14:41:16;12.10;7.60
4354;DHT22;11018;51.258;6.806;2023-03-01T14:43:45;11.80;7.20
4354;DHT22;11018;51.258;6.806;2023-03-01T14:46:34;11.70;7.10
4354;DHT22;11018;51.258;6.806;2023-03-01T14:51:43;11.30;7.00
4354;DHT22;11018;51.258;6.806;2023-03-01T14:54:39;10.90;8.30
4354;DHT22;11018;51.258;6.806;2023-03-01T14:57:05;11.00;8.70
4354;DHT22;11018;51.258;6.806;2023-03-01T14:59:33;11.60;7.90
4354;DHT22;11018;51.258;6.806;2023-03-01T15:02:00;11.60;6.80
4354;DHT22;11018;51.258;6.806;2023-03-01T15:04:27;11.30;7.50
4354;DHT22;11018;51.258;6.806;2023-03-01T15:06:55;11.40;7.70
4354;DHT22;11018;51.258;6.806;2023-03-01T15:09:21;11.40;7.20
4354;DHT22;11018;51.258;6.806;2023-03-01T15:11:47;11.90;6.90
4354;DHT22;11018;51.258;6.806;2023-03-01T15:14:42;11.70;6.20
4354;DHT22;11018;51.258;6.806;2023-03-01T15:17:29;11.40;7.10
4354;DHT22;11018;51.258;6.806;2023-03-01T15:19:55;11.50;6.60
4354;DHT22;11018;51.258;6.806;2023-03-01T15:22:23;11.40;7.80
4354;DHT22;11018;51.258;6.806;2023-03-01T15:24:50;11.50;6.90
4354;DHT22;11018;51.258;6.806;2023-03-01T15:27:19;11.20;6.70
4354;DHT22;11018;51.258;6.806;2023-03-01T15:29:58;11.10;6.80
4354;DHT22;11018;51.258;6.806;2023-03-01T15:34:58;11.00;7.50
4354;DHT22;11018;51.258;6.806;2023-03-01T15:37:39;11.00;6.90
4354;DHT22;11018;51.258;6.806;2023-03-01T15:40:27;11.40;7.70
4354;DHT22;11018;51.258;6.806;2023-03-01T15:43:05;11.50;6.70
4354;DHT22;11018;51.258;6.806;2023-03-01T15:45:32;11.50;6.60
4354;DHT22;11018;51.258;6.806;2023-03-01T15:48:05;11.60;6.70
4354;DHT22;11018;51.258;6.806;2023-03-01T15:50:39;11.50;6.50
4354;DHT22;11018;51.258;6.806;2023-03-01T15:53:09;11.50;6.20
4354;DHT22;11018;51.258;6.806;2023-03-01T15:55:36;11.80;6.70
4354;DHT22;11018;51.258;6.806;2023-03-01T15:58:23;11.70;6.00
4354;DHT22;11018;51.258;6.806;2023-03-01T16:00:50;10.70;7.10
4354;DHT22;11018;51.258;6.806;2023-03-01T16:03:21;10.00;7.80
4354;DHT22;11018;51.258;6.806;2023-03-01T16:05:48;9.20;8.60
4354;DHT22;11018;51.258;6.806;2023-03-01T16:08:14;8.80;9.80
4354;DHT22;11018;51.258;6.806;2023-03-01T16:10:41;8.50;10.20
4354;DHT22;11018;51.258;6.806;2023-03-01T16:13:09;8.30;11.40
4354;DHT22;11018;51.258;6.806;2023-03-01T16:15:35;8.00;11.60
4354;DHT22;11018;51.258;6.806;2023-03-01T16:18:01;7.90;12.60
4354;DHT22;11018;51.258;6.806;2023-03-01T16:20:27;7.80;13.10
4354;DHT22;11018;51.258;6.806;2023-03-01T16:22:53;7.60;12.80
4354;DHT22;11018;51.258;6.806;2023-03-01T16:25:20;7.60;12.90
4354;DHT22;11018;51.258;6.806;2023-03-01T16:27:48;7.60;13.40
4354;DHT22;11018;51.258;6.806;2023-03-01T16:30:15;7.60;13.00
4354;DHT22;11018;51.258;6.806;2023-03-01T16:32:43;7.60;12.10
4354;DHT22;11018;51.258;6.806;2023-03-01T16:35:11;7.60;13.40
4354;DHT22;11018;51.258;6.806;2023-03-01T16:37:38;7.70;12.20
4354;DHT22;11018;51.258;6.806;2023-03-01T16:40:06;7.60;12.20
4354;DHT22;11018;51.258;6.806;2023-03-01T16:42:36;7.50;12.80
4354;DHT22;11018;51.258;6.806;2023-03-01T16:45:02;7.20;13.70
4354;DHT22;11018;51.258;6.806;2023-03-01T16:47:29;7.00;14.50
4354;DHT22;11018;51.258;6.806;2023-03-01T16:49:55;6.80;14.60
4354;DHT22;11018;51.258;6.806;2023-03-01T16:52:21;6.80;15.10
4354;DHT22;11018;51.258;6.806;2023-03-01T16:54:47;6.60;15.90
4354;DHT22;11018;51.258;6.806;2023-03-01T16:57:13;6.50;15.40
4354;DHT22;11018;51.258;6.806;2023-03-01T16:59:39;6.30;16.20
4354;DHT22;11018;51.258;6.806;2023-03-01T17:02:05;6.30;16.90
4354;DHT22;11018;51.258;6.806;2023-03-01T17:04:35;6.30;15.80
4354;DHT22;11018;51.258;6.806;2023-03-01T17:07:00;6.10;16.90
4354;DHT22;11018;51.258;6.806;2023-03-01T17:09:26;5.90;17.60
4354;DHT22;11018;51.258;6.806;2023-03-01T17:11:52;6.10;16.10
4354;DHT22;11018;51.258;6.806;2023-03-01T17:14:17;5.80;15.80
4354;DHT22;11018;51.258;6.806;2023-03-01T17:16:43;5.90;15.90
4354;DHT22;11018;51.258;6.806;2023-03-01T17:19:10;5.80;16.50
4354;DHT22;11018;51.258;6.806;2023-03-01T17:21:36;5.80;16.10
4354;DHT22;11018;51.258;6.806;2023-03-01T17:24:02;5.70;16.60
4354;DHT22;11018;51.258;6.806;2023-03-01T17:26:28;5.70;16.40
4354;DHT22;11018;51.258;6.806;2023-03-01T17:28:55;5.80;16.00
4354;DHT22;11018;51.258;6.806;2023-03-01T17:31:22;5.70;17.40
4354;DHT22;11018;51.258;6.806;2023-03-01T17:33:48;5.80;16.20
4354;DHT22;11018;51.258;6.806;2023-03-01T17:36:14;5.70;16.60
4354;DHT22;11018;51.258;6.806;2023-03-01T17:38:40;5.60;16.50
4354;DHT22;11018;51.258;6.806;2023-03-01T17:41:05;5.60;16.70
4354;DHT22;11018;51.258;6.806;2023-03-01T17:43:31;5.50;17.50
4354;DHT22;11018;51.258;6.806;2023-03-01T17:45:59;5.50;18.50
4354;DHT22;11018;51.258;6.806;2023-03-01T17:48:24;5.50;17.40
4354;DHT22;11018;51.258;6.806;2023-03-01T17:50:50;5.50;17.10
4354;DHT22;11018;51.258;6.806;2023-03-01T17:53:15;5.40;16.90
4354;DHT22;11018;51.258;6.806;2023-03-01T17:55:42;5.40;17.70